sensor_id;sensor_type;location;lat;lon;timestamp;P1;durP1;ratioP1;P2;durP2;ratioP2
65047;SDS011;52089;51.362;-2.384;2022-11-11T00:03:35;4.83;;;1.03;;
65047;SDS011;52089;51.362;-2.384;2022-11-11T00:07:17;5.47;;;0.80;;
65047;SDS011;52089;51.362;-2.384;2022-11-11T00:11:02;4.00;;;1.00;;
65047;SDS011;52089;51.362;-2.384;2022-11-11T00:14:45;4.13;;;0.87;;
65047;SDS011;52089;51.362;-2.384;2022-11-11T00:18:27;4.30;;;1.03;;
65047;SDS011;52089;51.362;-2.384;2022-11-11T00:22:27;4.90;;;1.10;;
65047;SDS011;52089;51.362;-2.384;2022-11-11T00:26:29;6.97;;;0.80;;
65047;SDS011;52089;51.362;-2.384;2022-11-11T00:30:20;4.90;;;1.00;;
65047;SDS011;52089;51.362;-2.384;2022-11-11T00:34:02;7.50;;;0.97;;
65047;SDS011;52089;51.362;-2.384;2022-11-11T00:37:44;7.03;;;0.90;;
65047;SDS011;52089;51.362;-2.384;2022-11-11T00:41:31;9.13;;;1.13;;
65047;SDS011;52089;51.362;-2.384;2022-11-11T00:45:12;6.63;;;1.07;;
65047;SDS011;52089;51.362;-2.384;2022-11-11T00:48:54;6.20;;;0.93;;
65047;SDS011;52089;51.362;-2.384;2022-11-11T00:52:55;6.10;;;1.10;;
65047;SDS011;52089;51.362;-2.384;2022-11-11T00:56:37;5.40;;;1.43;;
65047;SDS011;52089;51.362;-2.384;2022-11-11T01:00:19;6.70;;;1.10;;
65047;SDS011;52089;51.362;-2.384;2022-11-11T01:04:01;7.53;;;1.20;;
65047;SDS011;52089;51.362;-2.384;2022-11-11T01:07:43;5.87;;;1.10;;
65047;SDS011;52089;51.362;-2.384;2022-11-11T01:11:24;3.90;;;1.00;;
65047;SDS011;52089;51.362;-2.384;2022-11-11T01:15:06;7.93;;;1.30;;
65047;SDS011;52089;51.362;-2.384;2022-11-11T01:18:50;8.13;;;1.33;;
65047;SDS011;52089;51.362;-2.384;2022-11-11T01:22:33;13.57;;;1.50;;
65047;SDS011;52089;51.362;-2.384;2022-11-11T01:26:15;4.27;;;0.93;;
65047;SDS011;52089;51.362;-2.384;2022-11-11T01:29:59;6.67;;;1.10;;
65047;SDS011;52089;51.362;-2.384;2022-11-11T01:33:41;5.27;;;1.00;;
65047;SDS011;52089;51.362;-2.384;2022-11-11T01:37:23;9.07;;;1.37;;
65047;SDS011;52089;51.362;-2.384;2022-11-11T01:41:05;9.30;;;1.70;;
65047;SDS011;52089;51.362;-2.384;2022-11-11T01:53:18;5.43;;;0.90;;
65047;SDS011;52089;51.362;-2.384;2022-11-11T01:57:03;5.20;;;1.23;;
65047;SDS011;52089;51.362;-2.384;2022-11-11T02:00:50;5.73;;;1.20;;
65047;SDS011;52089;51.362;-2.384;2022-11-11T02:04:32;9.03;;;1.43;;
65047;SDS011;52089;51.362;-2.384;2022-11-11T02:08:34;6.67;;;1.23;;
65047;SDS011;52089;51.362;-2.384;2022-11-11T02:12:17;7.40;;;1.40;;
65047;SDS011;52089;51.362;-2.384;2022-11-11T02:16:18;4.35;;;1.27;;
65047;SDS011;52089;51.362;-2.384;2022-11-11T02:20:01;9.87;;;2.30;;
65047;SDS011;52089;51.362;-2.384;2022-11-11T02:23:53;5.57;;;1.03;;
65047;SDS011;52089;51.362;-2.384;2022-11-11T02:28:00;12.63;;;2.30;;
65047;SDS011;52089;51.362;-2.384;2022-11-11T02:31:46;5.38;;;1.50;;
65047;SDS011;52089;51.362;-2.384;2022-11-11T02:35:31;6.90;;;1.30;;
65047;SDS011;52089;51.362;-2.384;2022-11-11T02:39:14;9.37;;;2.07;;
65047;SDS011;52089;51.362;-2.384;2022-11-11T02:42:55;6.30;;;1.50;;
65047;SDS011;52089;51.362;-2.384;2022-11-11T02:46:37;8.43;;;1.50;;
65047;SDS011;52089;51.362;-2.384;2022-11-11T02:50:19;10.43;;;1.63;;
65047;SDS011;52089;51.362;-2.384;2022-11-11T02:54:01;8.17;;;1.43;;
65047;SDS011;52089;51.362;-2.384;2022-11-11T02:57:43;9.30;;;1.87;;
65047;SDS011;52089;51.362;-2.384;2022-11-11T03:01:26;8.87;;;1.40;;
65047;SDS011;52089;51.362;-2.384;2022-11-11T03:05:08;6.80;;;1.53;;
65047;SDS011;52089;51.362;-2.384;2022-11-11T03:08:50;7.17;;;1.60;;
65047;SDS011;52089;51.362;-2.384;2022-11-11T03:12:32;8.27;;;1.60;;
65047;SDS011;52089;51.362;-2.384;2022-11-11T03:16:14;5.70;;;0.93;;
65047;SDS011;52089;51.362;-2.384;2022-11-11T03:24:08;6.60;;;1.50;;
65047;SDS011;52089;51.362;-2.384;2022-11-11T03:27:50;8.67;;;1.30;;
65047;SDS011;52089;51.362;-2.384;2022-11-11T03:31:32;9.07;;;1.30;;
65047;SDS011;52089;51.362;-2.384;2022-11-11T03:35:14;7.67;;;1.00;;
65047;SDS011;52089;51.362;-2.384;2022-11-11T03:38:56;7.17;;;1.30;;
65047;SDS011;52089;51.362;-2.384;2022-11-11T03:42:37;10.60;;;1.20;;
65047;SDS011;52089;51.362;-2.384;2022-11-11T03:46:19;6.40;;;1.00;;
65047;SDS011;52089;51.362;-2.384;2022-11-11T03:50:01;6.67;;;1.07;;
65047;SDS011;52089;51.362;-2.384;2022-11-11T03:53:43;3.67;;;1.10;;
65047;SDS011;52089;51.362;-2.384;2022-11-11T03:57:25;3.90;;;0.90;;
65047;SDS011;52089;51.362;-2.384;2022-11-11T04:01:12;6.20;;;1.00;;
65047;SDS011;52089;51.362;-2.384;2022-11-11T04:05:14;6.40;;;0.97;;
65047;SDS011;52089;51.362;-2.384;2022-11-11T04:09:15;7.57;;;1.10;;
65047;SDS011;52089;51.362;-2.384;2022-11-11T04:13:15;4.80;;;1.05;;
65047;SDS011;52089;51.362;-2.384;2022-11-11T04:17:15;7.35;;;1.00;;
65047;SDS011;52089;51.362;-2.384;2022-11-11T04:20:57;8.50;;;1.13;;
65047;SDS011;52089;51.362;-2.384;2022-11-11T04:24:57;6.18;;;1.00;;
65047;SDS011;52089;51.362;-2.384;2022-11-11T04:28:59;7.53;;;1.10;;
65047;SDS011;52089;51.362;-2.384;2022-11-11T04:32:59;4.45;;;0.82;;
65047;SDS011;52089;51.362;-2.384;2022-11-11T04:36:41;7.97;;;1.30;;
65047;SDS011;52089;51.362;-2.384;2022-11-11T04:40:22;4.73;;;1.03;;
65047;SDS011;52089;51.362;-2.384;2022-11-11T04:44:23;5.10;;;1.05;;
65047;SDS011;52089;51.362;-2.384;2022-11-11T04:52:07;5.17;;;1.10;;
65047;SDS011;52089;51.362;-2.384;2022-11-11T04:56:09;8.63;;;1.20;;
65047;SDS011;52089;51.362;-2.384;2022-11-11T05:03:52;4.03;;;0.90;;
65047;SDS011;52089;51.362;-2.384;2022-11-11T05:07:34;5.13;;;1.13;;
65047;SDS011;52089;51.362;-2.384;2022-11-11T05:11:35;6.43;;;1.02;;
65047;SDS011;52089;51.362;-2.384;2022-11-11T05:15:17;7.30;;;1.13;;
65047;SDS011;52089;51.362;-2.384;2022-11-11T05:19:20;6.43;;;1.10;;
65047;SDS011;52089;51.362;-2.384;2022-11-11T05:27:02;4.63;;;0.87;;
65047;SDS011;52089;51.362;-2.384;2022-11-11T05:30:44;8.00;;;1.03;;
65047;SDS011;52089;51.362;-2.384;2022-11-11T05:34:27;5.80;;;1.20;;
65047;SDS011;52089;51.362;-2.384;2022-11-11T05:38:08;6.17;;;0.90;;
65047;SDS011;52089;51.362;-2.384;2022-11-11T05:42:02;7.37;;;1.00;;
65047;SDS011;52089;51.362;-2.384;2022-11-11T05:45:46;4.07;;;0.80;;
65047;SDS011;52089;51.362;-2.384;2022-11-11T05:49:28;4.20;;;0.80;;
65047;SDS011;52089;51.362;-2.384;2022-11-11T05:53:11;7.67;;;1.00;;
65047;SDS011;52089;51.362;-2.384;2022-11-11T05:56:53;6.17;;;1.03;;
65047;SDS011;52089;51.362;-2.384;2022-11-11T06:00:35;8.10;;;1.30;;
65047;SDS011;52089;51.362;-2.384;2022-11-11T06:04:16;7.47;;;0.97;;
65047;SDS011;52089;51.362;-2.384;2022-11-11T06:08:00;5.77;;;1.10;;
65047;SDS011;52089;51.362;-2.384;2022-11-11T06:11:41;12.57;;;1.43;;
65047;SDS011;52089;51.362;-2.384;2022-11-11T06:15:23;5.73;;;1.17;;
65047;SDS011;52089;51.362;-2.384;2022-11-11T06:19:05;6.30;;;1.20;;
65047;SDS011;52089;51.362;-2.384;2022-11-11T06:22:47;6.90;;;0.90;;
65047;SDS011;52089;51.362;-2.384;2022-11-11T06:26:38;6.03;;;0.80;;
65047;SDS011;52089;51.362;-2.384;2022-11-11T06:30:20;7.20;;;1.23;;
65047;SDS011;52089;51.362;-2.384;2022-11-11T06:34:21;5.03;;;0.83;;
65047;SDS011;52089;51.362;-2.384;2022-11-11T06:38:03;8.67;;;1.33;;
65047;SDS011;52089;51.362;-2.384;2022-11-11T06:41:47;7.73;;;1.17;;
65047;SDS011;52089;51.362;-2.384;2022-11-11T06:45:29;7.40;;;1.23;;
65047;SDS011;52089;51.362;-2.384;2022-11-11T06:49:11;6.73;;;1.40;;
65047;SDS011;52089;51.362;-2.384;2022-11-11T06:52:54;5.23;;;1.27;;
65047;SDS011;52089;51.362;-2.384;2022-11-11T06:56:36;3.93;;;1.17;;
65047;SDS011;52089;51.362;-2.384;2022-11-11T07:00:18;8.37;;;1.00;;
65047;SDS011;52089;51.362;-2.384;2022-11-11T07:04:00;4.90;;;1.03;;
65047;SDS011;52089;51.362;-2.384;2022-11-11T07:07:42;7.30;;;1.03;;
65047;SDS011;52089;51.362;-2.384;2022-11-11T07:11:25;6.80;;;1.30;;
65047;SDS011;52089;51.362;-2.384;2022-11-11T07:15:07;7.93;;;1.50;;
65047;SDS011;52089;51.362;-2.384;2022-11-11T07:18:50;3.67;;;1.20;;
65047;SDS011;52089;51.362;-2.384;2022-11-11T07:22:34;5.70;;;1.00;;
65047;SDS011;52089;51.362;-2.384;2022-11-11T07:26:18;7.87;;;1.63;;
65047;SDS011;52089;51.362;-2.384;2022-11-11T07:30:00;7.07;;;1.00;;
65047;SDS011;52089;51.362;-2.384;2022-11-11T07:33:41;4.87;;;0.87;;
65047;SDS011;52089;51.362;-2.384;2022-11-11T07:37:23;6.30;;;1.03;;
65047;SDS011;52089;51.362;-2.384;2022-11-11T07:41:05;7.40;;;1.20;;
65047;SDS011;52089;51.362;-2.384;2022-11-11T07:44:47;6.43;;;0.97;;
65047;SDS011;52089;51.362;-2.384;2022-11-11T07:48:29;3.80;;;0.90;;
65047;SDS011;52089;51.362;-2.384;2022-11-11T07:52:11;5.67;;;0.93;;
65047;SDS011;52089;51.362;-2.384;2022-11-11T07:55:53;6.57;;;1.10;;
65047;SDS011;52089;51.362;-2.384;2022-11-11T07:59:35;6.83;;;0.90;;
65047;SDS011;52089;51.362;-2.384;2022-11-11T08:03:17;7.77;;;1.30;;
65047;SDS011;52089;51.362;-2.384;2022-11-11T08:06:59;6.50;;;1.17;;
65047;SDS011;52089;51.362;-2.384;2022-11-11T08:10:41;7.13;;;1.10;;
65047;SDS011;52089;51.362;-2.384;2022-11-11T08:14:23;10.83;;;1.43;;
65047;SDS011;52089;51.362;-2.384;2022-11-11T08:18:04;5.93;;;1.07;;
65047;SDS011;52089;51.362;-2.384;2022-11-11T08:21:46;11.77;;;1.60;;
65047;SDS011;52089;51.362;-2.384;2022-11-11T08:25:28;14.87;;;1.53;;
65047;SDS011;52089;51.362;-2.384;2022-11-11T08:29:11;8.50;;;1.40;;
65047;SDS011;52089;51.362;-2.384;2022-11-11T08:32:59;9.10;;;1.77;;
65047;SDS011;52089;51.362;-2.384;2022-11-11T08:37:02;6.57;;;1.20;;
65047;SDS011;52089;51.362;-2.384;2022-11-11T08:40:43;9.47;;;1.67;;
65047;SDS011;52089;51.362;-2.384;2022-11-11T08:44:25;10.33;;;1.63;;
65047;SDS011;52089;51.362;-2.384;2022-11-11T08:48:07;8.23;;;1.50;;
65047;SDS011;52089;51.362;-2.384;2022-11-11T08:51:54;8.50;;;1.60;;
65047;SDS011;52089;51.362;-2.384;2022-11-11T08:55:35;9.23;;;1.63;;
65047;SDS011;52089;51.362;-2.384;2022-11-11T08:59:18;7.93;;;1.13;;
65047;SDS011;52089;51.362;-2.384;2022-11-11T09:03:00;10.73;;;1.43;;
65047;SDS011;52089;51.362;-2.384;2022-11-11T09:06:44;6.43;;;1.13;;
65047;SDS011;52089;51.362;-2.384;2022-11-11T09:10:27;7.97;;;1.57;;
65047;SDS011;52089;51.362;-2.384;2022-11-11T09:14:09;6.87;;;1.47;;
65047;SDS011;52089;51.362;-2.384;2022-11-11T09:17:51;11.73;;;1.70;;
65047;SDS011;52089;51.362;-2.384;2022-11-11T09:21:33;8.77;;;1.70;;
65047;SDS011;52089;51.362;-2.384;2022-11-11T09:25:14;10.77;;;1.53;;
65047;SDS011;52089;51.362;-2.384;2022-11-11T09:28:57;9.70;;;1.43;;
65047;SDS011;52089;51.362;-2.384;2022-11-11T09:32:39;7.97;;;1.30;;
65047;SDS011;52089;51.362;-2.384;2022-11-11T09:36:21;10.10;;;1.67;;
65047;SDS011;52089;51.362;-2.384;2022-11-11T09:40:02;12.57;;;1.43;;
65047;SDS011;52089;51.362;-2.384;2022-11-11T09:43:47;7.97;;;1.47;;
65047;SDS011;52089;51.362;-2.384;2022-11-11T09:47:52;8.50;;;1.50;;
65047;SDS011;52089;51.362;-2.384;2022-11-11T09:56:00;7.50;;;1.50;;
65047;SDS011;52089;51.362;-2.384;2022-11-11T10:00:17;7.87;;;1.40;;
65047;SDS011;52089;51.362;-2.384;2022-11-11T10:08:04;9.00;;;1.60;;
65047;SDS011;52089;51.362;-2.384;2022-11-11T10:16:13;6.47;;;1.40;;
65047;SDS011;52089;51.362;-2.384;2022-11-11T10:24:00;9.27;;;1.70;;
65047;SDS011;52089;51.362;-2.384;2022-11-11T10:27:46;11.80;;;1.67;;
65047;SDS011;52089;51.362;-2.384;2022-11-11T10:31:31;11.70;;;1.80;;
65047;SDS011;52089;51.362;-2.384;2022-11-11T10:35:17;9.33;;;1.60;;
65047;SDS011;52089;51.362;-2.384;2022-11-11T10:39:04;7.07;;;1.50;;
65047;SDS011;52089;51.362;-2.384;2022-11-11T10:42:46;8.37;;;1.43;;
65047;SDS011;52089;51.362;-2.384;2022-11-11T10:46:29;10.17;;;1.97;;
65047;SDS011;52089;51.362;-2.384;2022-11-11T10:54:25;7.80;;;1.20;;
65047;SDS011;52089;51.362;-2.384;2022-11-11T10:58:31;7.00;;;1.23;;
65047;SDS011;52089;51.362;-2.384;2022-11-11T11:02:33;6.27;;;0.87;;
65047;SDS011;52089;51.362;-2.384;2022-11-11T11:10:23;6.80;;;1.20;;
65047;SDS011;52089;51.362;-2.384;2022-11-11T11:14:14;5.97;;;1.27;;
65047;SDS011;52089;51.362;-2.384;2022-11-11T11:18:02;8.73;;;1.37;;
65047;SDS011;52089;51.362;-2.384;2022-11-11T11:25:38;8.97;;;1.27;;
65047;SDS011;52089;51.362;-2.384;2022-11-11T11:29:38;6.43;;;1.00;;
65047;SDS011;52089;51.362;-2.384;2022-11-11T11:33:22;7.33;;;1.60;;
65047;SDS011;52089;51.362;-2.384;2022-11-11T11:37:04;7.07;;;1.17;;
65047;SDS011;52089;51.362;-2.384;2022-11-11T11:40:50;9.70;;;1.30;;
65047;SDS011;52089;51.362;-2.384;2022-11-11T11:44:38;7.77;;;1.20;;
65047;SDS011;52089;51.362;-2.384;2022-11-11T11:48:24;5.63;;;1.07;;
65047;SDS011;52089;51.362;-2.384;2022-11-11T11:56:43;5.27;;;0.80;;
65047;SDS011;52089;51.362;-2.384;2022-11-11T12:00:33;10.03;;;1.33;;
65047;SDS011;52089;51.362;-2.384;2022-11-11T12:04:26;8.13;;;1.03;;
65047;SDS011;52089;51.362;-2.384;2022-11-11T12:08:44;8.10;;;1.17;;
65047;SDS011;52089;51.362;-2.384;2022-11-11T12:12:42;9.73;;;1.33;;
65047;SDS011;52089;51.362;-2.384;2022-11-11T12:16:40;5.47;;;0.80;;
65047;SDS011;52089;51.362;-2.384;2022-11-11T12:21:11;7.33;;;1.10;;
65047;SDS011;52089;51.362;-2.384;2022-11-11T12:37:18;4.53;;;0.93;;
65047;SDS011;52089;51.362;-2.384;2022-11-11T12:41:13;6.03;;;0.90;;
65047;SDS011;52089;51.362;-2.384;2022-11-11T12:45:13;8.17;;;1.47;;
65047;SDS011;52089;51.362;-2.384;2022-11-11T13:00:27;10.60;;;1.40;;
65047;SDS011;52089;51.362;-2.384;2022-11-11T13:04:28;5.97;;;0.90;;
65047;SDS011;52089;51.362;-2.384;2022-11-11T13:16:23;6.10;;;1.20;;
65047;SDS011;52089;51.362;-2.384;2022-11-11T13:24:01;7.93;;;3.80;;
65047;SDS011;52089;51.362;-2.384;2022-11-11T13:31:39;6.00;;;0.90;;
65047;SDS011;52089;51.362;-2.384;2022-11-11T13:35:27;10.53;;;1.37;;
65047;SDS011;52089;51.362;-2.384;2022-11-11T13:39:21;6.60;;;1.03;;
65047;SDS011;52089;51.362;-2.384;2022-11-11T13:47:33;7.23;;;1.00;;
65047;SDS011;52089;51.362;-2.384;2022-11-11T13:55:23;9.97;;;1.30;;
65047;SDS011;52089;51.362;-2.384;2022-11-11T13:59:22;8.57;;;1.30;;
65047;SDS011;52089;51.362;-2.384;2022-11-11T14:06:57;5.93;;;1.40;;
65047;SDS011;52089;51.362;-2.384;2022-11-11T14:10:43;6.40;;;1.20;;
65047;SDS011;52089;51.362;-2.384;2022-11-11T14:22:02;9.40;;;1.47;;
65047;SDS011;52089;51.362;-2.384;2022-11-11T14:29:51;6.03;;;1.50;;
65047;SDS011;52089;51.362;-2.384;2022-11-11T14:37:42;5.77;;;1.47;;
65047;SDS011;52089;51.362;-2.384;2022-11-11T14:41:50;9.63;;;2.23;;
65047;SDS011;52089;51.362;-2.384;2022-11-11T14:49:43;5.07;;;1.40;;
65047;SDS011;52089;51.362;-2.384;2022-11-11T14:53:35;6.47;;;1.70;;
65047;SDS011;52089;51.362;-2.384;2022-11-11T14:57:20;10.07;;;1.50;;
65047;SDS011;52089;51.362;-2.384;2022-11-11T15:04:58;8.50;;;1.83;;
65047;SDS011;52089;51.362;-2.384;2022-11-11T15:09:30;12.10;;;1.80;;
65047;SDS011;52089;51.362;-2.384;2022-11-11T15:21:10;6.30;;;1.43;;
65047;SDS011;52089;51.362;-2.384;2022-11-11T15:29:17;7.73;;;1.57;;
65047;SDS011;52089;51.362;-2.384;2022-11-11T15:33:20;8.40;;;1.47;;
65047;SDS011;52089;51.362;-2.384;2022-11-11T15:37:22;7.43;;;1.70;;
65047;SDS011;52089;51.362;-2.384;2022-11-11T15:41:19;6.57;;;1.70;;
65047;SDS011;52089;51.362;-2.384;2022-11-11T15:49:01;9.17;;;1.77;;
65047;SDS011;52089;51.362;-2.384;2022-11-11T15:52:45;7.20;;;1.60;;
65047;SDS011;52089;51.362;-2.384;2022-11-11T15:56:28;10.67;;;1.63;;
65047;SDS011;52089;51.362;-2.384;2022-11-11T16:04:07;8.80;;;1.90;;
65047;SDS011;52089;51.362;-2.384;2022-11-11T16:08:11;7.03;;;2.23;;
65047;SDS011;52089;51.362;-2.384;2022-11-11T16:12:00;7.20;;;1.85;;
65047;SDS011;52089;51.362;-2.384;2022-11-11T16:15:44;10.27;;;2.80;;
65047;SDS011;52089;51.362;-2.384;2022-11-11T16:19:38;7.80;;;2.67;;
65047;SDS011;52089;51.362;-2.384;2022-11-11T16:23:29;9.23;;;2.37;;
65047;SDS011;52089;51.362;-2.384;2022-11-11T16:27:14;7.80;;;2.07;;
65047;SDS011;52089;51.362;-2.384;2022-11-11T16:30:59;10.47;;;2.63;;
65047;SDS011;52089;51.362;-2.384;2022-11-11T16:35:25;10.97;;;2.13;;
65047;SDS011;52089;51.362;-2.384;2022-11-11T16:39:19;6.40;;;1.93;;
65047;SDS011;52089;51.362;-2.384;2022-11-11T16:43:14;7.57;;;2.73;;
65047;SDS011;52089;51.362;-2.384;2022-11-11T16:47:05;6.67;;;2.27;;
65047;SDS011;52089;51.362;-2.384;2022-11-11T16:51:03;6.03;;;1.97;;
65047;SDS011;52089;51.362;-2.384;2022-11-11T16:54:50;8.07;;;2.27;;
65047;SDS011;52089;51.362;-2.384;2022-11-11T16:58:36;9.03;;;2.40;;
65047;SDS011;52089;51.362;-2.384;2022-11-11T17:02:24;10.13;;;3.40;;
65047;SDS011;52089;51.362;-2.384;2022-11-11T17:06:07;8.73;;;2.20;;
65047;SDS011;52089;51.362;-2.384;2022-11-11T17:09:50;6.90;;;2.00;;
65047;SDS011;52089;51.362;-2.384;2022-11-11T17:13:32;10.67;;;2.40;;
65047;SDS011;52089;51.362;-2.384;2022-11-11T17:17:22;7.82;;;2.30;;
65047;SDS011;52089;51.362;-2.384;2022-11-11T17:21:04;5.47;;;2.30;;
65047;SDS011;52089;51.362;-2.384;2022-11-11T17:24:46;12.33;;;2.77;;
65047;SDS011;52089;51.362;-2.384;2022-11-11T17:28:32;9.97;;;2.40;;
65047;SDS011;52089;51.362;-2.384;2022-11-11T17:32:15;9.97;;;2.50;;
65047;SDS011;52089;51.362;-2.384;2022-11-11T17:35:57;7.87;;;2.30;;
65047;SDS011;52089;51.362;-2.384;2022-11-11T17:39:41;9.83;;;2.43;;
65047;SDS011;52089;51.362;-2.384;2022-11-11T17:43:25;8.90;;;2.03;;
65047;SDS011;52089;51.362;-2.384;2022-11-11T17:47:08;10.27;;;2.37;;
65047;SDS011;52089;51.362;-2.384;2022-11-11T17:50:49;9.80;;;3.07;;
65047;SDS011;52089;51.362;-2.384;2022-11-11T17:54:31;9.50;;;3.43;;
65047;SDS011;52089;51.362;-2.384;2022-11-11T17:58:13;8.53;;;2.83;;
65047;SDS011;52089;51.362;-2.384;2022-11-11T18:01:55;11.40;;;2.20;;
65047;SDS011;52089;51.362;-2.384;2022-11-11T18:05:37;9.80;;;2.63;;
65047;SDS011;52089;51.362;-2.384;2022-11-11T18:09:18;8.60;;;2.57;;
65047;SDS011;52089;51.362;-2.384;2022-11-11T18:13:00;7.47;;;2.30;;
65047;SDS011;52089;51.362;-2.384;2022-11-11T18:16:43;5.30;;;2.10;;
65047;SDS011;52089;51.362;-2.384;2022-11-11T18:20:25;5.67;;;2.13;;
65047;SDS011;52089;51.362;-2.384;2022-11-11T18:24:07;9.33;;;2.57;;
65047;SDS011;52089;51.362;-2.384;2022-11-11T18:27:53;7.43;;;2.67;;
65047;SDS011;52089;51.362;-2.384;2022-11-11T18:31:35;10.50;;;4.97;;
65047;SDS011;52089;51.362;-2.384;2022-11-11T18:35:17;10.90;;;4.37;;
65047;SDS011;52089;51.362;-2.384;2022-11-11T18:38:59;11.40;;;3.20;;
65047;SDS011;52089;51.362;-2.384;2022-11-11T18:42:41;11.20;;;3.60;;
65047;SDS011;52089;51.362;-2.384;2022-11-11T18:46:24;9.93;;;2.97;;
65047;SDS011;52089;51.362;-2.384;2022-11-11T18:50:09;10.43;;;3.87;;
65047;SDS011;52089;51.362;-2.384;2022-11-11T18:53:51;7.90;;;2.93;;
65047;SDS011;52089;51.362;-2.384;2022-11-11T18:57:33;12.77;;;2.87;;
65047;SDS011;52089;51.362;-2.384;2022-11-11T19:01:16;10.93;;;2.87;;
65047;SDS011;52089;51.362;-2.384;2022-11-11T19:05:05;11.75;;;3.03;;
65047;SDS011;52089;51.362;-2.384;2022-11-11T19:08:48;11.57;;;3.23;;
65047;SDS011;52089;51.362;-2.384;2022-11-11T19:12:34;10.03;;;3.33;;
65047;SDS011;52089;51.362;-2.384;2022-11-11T19:16:17;9.07;;;2.70;;
65047;SDS011;52089;51.362;-2.384;2022-11-11T19:20:03;9.00;;;2.77;;
65047;SDS011;52089;51.362;-2.384;2022-11-11T19:23:49;8.67;;;2.30;;
65047;SDS011;52089;51.362;-2.384;2022-11-11T19:27:32;7.70;;;2.47;;
65047;SDS011;52089;51.362;-2.384;2022-11-11T19:31:15;9.20;;;2.60;;
65047;SDS011;52089;51.362;-2.384;2022-11-11T19:34:59;8.13;;;2.40;;
65047;SDS011;52089;51.362;-2.384;2022-11-11T19:38:41;8.70;;;2.47;;
65047;SDS011;52089;51.362;-2.384;2022-11-11T19:42:23;9.53;;;2.40;;
65047;SDS011;52089;51.362;-2.384;2022-11-11T19:46:05;12.53;;;3.20;;
65047;SDS011;52089;51.362;-2.384;2022-11-11T19:49:50;13.07;;;4.67;;
65047;SDS011;52089;51.362;-2.384;2022-11-11T19:53:32;9.77;;;4.17;;
65047;SDS011;52089;51.362;-2.384;2022-11-11T19:57:14;12.23;;;2.70;;
65047;SDS011;52089;51.362;-2.384;2022-11-11T20:00:55;11.03;;;2.93;;
65047;SDS011;52089;51.362;-2.384;2022-11-11T20:04:37;9.20;;;2.57;;
65047;SDS011;52089;51.362;-2.384;2022-11-11T20:08:19;8.73;;;2.57;;
65047;SDS011;52089;51.362;-2.384;2022-11-11T20:12:01;8.33;;;2.43;;
65047;SDS011;52089;51.362;-2.384;2022-11-11T20:15:43;7.10;;;2.43;;
65047;SDS011;52089;51.362;-2.384;2022-11-11T20:19:24;8.30;;;2.53;;
65047;SDS011;52089;51.362;-2.384;2022-11-11T20:23:06;8.20;;;2.50;;
65047;SDS011;52089;51.362;-2.384;2022-11-11T20:26:48;7.80;;;2.20;;
65047;SDS011;52089;51.362;-2.384;2022-11-11T20:30:32;8.10;;;2.40;;
65047;SDS011;52089;51.362;-2.384;2022-11-11T20:34:16;9.93;;;2.57;;
65047;SDS011;52089;51.362;-2.384;2022-11-11T20:37:58;7.60;;;2.10;;
65047;SDS011;52089;51.362;-2.384;2022-11-11T20:41:39;11.07;;;1.90;;
65047;SDS011;52089;51.362;-2.384;2022-11-11T20:45:21;11.63;;;2.67;;
65047;SDS011;52089;51.362;-2.384;2022-11-11T20:49:03;6.23;;;2.10;;
65047;SDS011;52089;51.362;-2.384;2022-11-11T20:52:45;11.77;;;2.70;;
65047;SDS011;52089;51.362;-2.384;2022-11-11T20:56:27;8.10;;;3.03;;
65047;SDS011;52089;51.362;-2.384;2022-11-11T21:00:10;9.80;;;3.47;;
65047;SDS011;52089;51.362;-2.384;2022-11-11T21:03:52;11.77;;;3.27;;
65047;SDS011;52089;51.362;-2.384;2022-11-11T21:07:36;7.17;;;2.43;;
65047;SDS011;52089;51.362;-2.384;2022-11-11T21:11:18;8.43;;;3.40;;
65047;SDS011;52089;51.362;-2.384;2022-11-11T21:15:01;7.67;;;2.90;;
65047;SDS011;52089;51.362;-2.384;2022-11-11T21:18:44;8.83;;;3.03;;
65047;SDS011;52089;51.362;-2.384;2022-11-11T21:22:27;7.53;;;3.23;;
65047;SDS011;52089;51.362;-2.384;2022-11-11T21:26:10;7.03;;;3.20;;
65047;SDS011;52089;51.362;-2.384;2022-11-11T21:29:53;5.30;;;2.37;;
65047;SDS011;52089;51.362;-2.384;2022-11-11T21:33:35;9.17;;;3.43;;
65047;SDS011;52089;51.362;-2.384;2022-11-11T21:37:17;7.80;;;3.00;;
65047;SDS011;52089;51.362;-2.384;2022-11-11T21:41:00;8.23;;;2.80;;
65047;SDS011;52089;51.362;-2.384;2022-11-11T21:45:01;9.30;;;3.10;;
65047;SDS011;52089;51.362;-2.384;2022-11-11T21:48:43;11.73;;;3.00;;
65047;SDS011;52089;51.362;-2.384;2022-11-11T21:52:25;8.33;;;3.43;;
65047;SDS011;52089;51.362;-2.384;2022-11-11T21:56:08;7.90;;;3.17;;
65047;SDS011;52089;51.362;-2.384;2022-11-11T21:59:53;10.40;;;3.43;;
65047;SDS011;52089;51.362;-2.384;2022-11-11T22:03:35;13.93;;;6.53;;
65047;SDS011;52089;51.362;-2.384;2022-11-11T22:07:19;8.03;;;3.60;;
65047;SDS011;52089;51.362;-2.384;2022-11-11T22:11:11;7.07;;;3.10;;
65047;SDS011;52089;51.362;-2.384;2022-11-11T22:14:54;7.57;;;3.23;;
65047;SDS011;52089;51.362;-2.384;2022-11-11T22:18:36;5.03;;;2.60;;
65047;SDS011;52089;51.362;-2.384;2022-11-11T22:22:24;8.70;;;2.73;;
65047;SDS011;52089;51.362;-2.384;2022-11-11T22:26:07;7.03;;;2.13;;
65047;SDS011;52089;51.362;-2.384;2022-11-11T22:29:50;8.07;;;2.80;;
65047;SDS011;52089;51.362;-2.384;2022-11-11T22:33:32;7.27;;;2.33;;
65047;SDS011;52089;51.362;-2.384;2022-11-11T22:37:14;5.53;;;2.20;;
65047;SDS011;52089;51.362;-2.384;2022-11-11T22:40:59;10.23;;;2.40;;
65047;SDS011;52089;51.362;-2.384;2022-11-11T22:44:42;7.10;;;2.40;;
65047;SDS011;52089;51.362;-2.384;2022-11-11T22:48:24;9.23;;;3.07;;
65047;SDS011;52089;51.362;-2.384;2022-11-11T22:52:06;6.90;;;3.30;;
65047;SDS011;52089;51.362;-2.384;2022-11-11T22:55:48;10.97;;;4.07;;
65047;SDS011;52089;51.362;-2.384;2022-11-11T22:59:30;5.77;;;3.20;;
65047;SDS011;52089;51.362;-2.384;2022-11-11T23:03:12;20.17;;;6.70;;
65047;SDS011;52089;51.362;-2.384;2022-11-11T23:06:56;15.90;;;4.37;;
65047;SDS011;52089;51.362;-2.384;2022-11-11T23:10:37;21.17;;;10.90;;
65047;SDS011;52089;51.362;-2.384;2022-11-11T23:14:19;9.17;;;5.00;;
65047;SDS011;52089;51.362;-2.384;2022-11-11T23:18:02;7.83;;;3.63;;
65047;SDS011;52089;51.362;-2.384;2022-11-11T23:21:43;11.80;;;4.53;;
65047;SDS011;52089;51.362;-2.384;2022-11-11T23:25:25;7.00;;;3.50;;
65047;SDS011;52089;51.362;-2.384;2022-11-11T23:29:07;5.97;;;3.60;;
65047;SDS011;52089;51.362;-2.384;2022-11-11T23:32:51;9.37;;;4.27;;
65047;SDS011;52089;51.362;-2.384;2022-11-11T23:36:33;8.83;;;4.80;;
65047;SDS011;52089;51.362;-2.384;2022-11-11T23:40:15;10.77;;;6.37;;
65047;SDS011;52089;51.362;-2.384;2022-11-11T23:43:57;14.73;;;6.00;;
65047;SDS011;52089;51.362;-2.384;2022-11-11T23:47:39;11.87;;;6.57;;
65047;SDS011;52089;51.362;-2.384;2022-11-11T23:51:21;10.90;;;6.70;;
65047;SDS011;52089;51.362;-2.384;2022-11-11T23:55:03;18.80;;;12.67;;
65047;SDS011;52089;51.362;-2.384;2022-11-11T23:58:46;13.97;;;8.10;;
